sensor_id;sensor_type;location;lat;lon;timestamp;P1;durP1;ratioP1;P2;durP2;ratioP2
4504;SDS011;2265;48.794;9.520;2023-06-04T00:00:45;10.30;;;4.13;;
4504;SDS011;2265;48.794;9.520;2023-06-04T00:03:12;12.53;;;5.00;;
4504;SDS011;2265;48.794;9.520;2023-06-04T00:05:39;8.27;;;4.93;;
4504;SDS011;2265;48.794;9.520;2023-06-04T00:08:06;7.90;;;4.23;;
4504;SDS011;2265;48.794;9.520;2023-06-04T00:10:34;9.27;;;4.93;;
4504;SDS011;2265;48.794;9.520;2023-06-04T00:13:01;13.83;;;4.80;;
4504;SDS011;2265;48.794;9.520;2023-06-04T00:15:28;11.63;;;4.83;;
4504;SDS011;2265;48.794;9.520;2023-06-04T00:17:58;8.93;;;5.03;;
4504;SDS011;2265;48.794;9.520;2023-06-04T00:20:25;9.03;;;4.50;;
4504;SDS011;2265;48.794;9.520;2023-06-04T00:22:52;9.23;;;4.57;;
4504;SDS011;2265;48.794;9.520;2023-06-04T00:25:20;8.90;;;5.07;;
4504;SDS011;2265;48.794;9.520;2023-06-04T00:27:47;11.33;;;4.83;;
4504;SDS011;2265;48.794;9.520;2023-06-04T00:30:14;7.70;;;4.37;;
4504;SDS011;2265;48.794;9.520;2023-06-04T00:32:41;9.53;;;4.67;;
4504;SDS011;2265;48.794;9.520;2023-06-04T00:35:09;6.50;;;3.80;;
4504;SDS011;2265;48.794;9.520;2023-06-04T00:37:37;7.63;;;4.37;;
4504;SDS011;2265;48.794;9.520;2023-06-04T00:40:05;7.43;;;3.93;;
4504;SDS011;2265;48.794;9.520;2023-06-04T00:42:33;6.80;;;3.73;;
4504;SDS011;2265;48.794;9.520;2023-06-04T00:45:00;7.90;;;4.60;;
4504;SDS011;2265;48.794;9.520;2023-06-04T00:47:27;9.63;;;4.27;;
4504;SDS011;2265;48.794;9.520;2023-06-04T00:49:56;7.97;;;4.40;;
4504;SDS011;2265;48.794;9.520;2023-06-04T00:52:25;8.57;;;4.30;;
4504;SDS011;2265;48.794;9.520;2023-06-04T00:54:53;5.93;;;3.50;;
4504;SDS011;2265;48.794;9.520;2023-06-04T00:57:20;7.83;;;3.97;;
4504;SDS011;2265;48.794;9.520;2023-06-04T00:59:47;12.17;;;4.07;;
4504;SDS011;2265;48.794;9.520;2023-06-04T01:02:16;6.43;;;3.60;;
4504;SDS011;2265;48.794;9.520;2023-06-04T01:04:46;6.77;;;3.10;;
4504;SDS011;2265;48.794;9.520;2023-06-04T01:07:18;6.40;;;3.83;;
4504;SDS011;2265;48.794;9.520;2023-06-04T01:09:47;5.73;;;3.30;;
4504;SDS011;2265;48.794;9.520;2023-06-04T01:12:15;5.33;;;3.37;;
4504;SDS011;2265;48.794;9.520;2023-06-04T01:14:43;7.67;;;3.53;;
4504;SDS011;2265;48.794;9.520;2023-06-04T01:17:11;8.20;;;3.60;;
4504;SDS011;2265;48.794;9.520;2023-06-04T01:23:19;6.50;;;3.50;;
4504;SDS011;2265;48.794;9.520;2023-06-04T01:26:00;6.13;;;3.17;;
4504;SDS011;2265;48.794;9.520;2023-06-04T01:28:29;5.60;;;3.00;;
4504;SDS011;2265;48.794;9.520;2023-06-04T01:30:56;7.10;;;3.37;;
4504;SDS011;2265;48.794;9.520;2023-06-04T01:33:25;7.43;;;3.80;;
4504;SDS011;2265;48.794;9.520;2023-06-04T01:35:52;5.50;;;3.20;;
4504;SDS011;2265;48.794;9.520;2023-06-04T01:38:19;6.30;;;3.20;;
4504;SDS011;2265;48.794;9.520;2023-06-04T01:40:47;7.80;;;3.20;;
4504;SDS011;2265;48.794;9.520;2023-06-04T01:43:17;5.17;;;2.80;;
4504;SDS011;2265;48.794;9.520;2023-06-04T01:45:44;4.10;;;2.57;;
4504;SDS011;2265;48.794;9.520;2023-06-04T01:48:11;5.63;;;3.23;;
4504;SDS011;2265;48.794;9.520;2023-06-04T01:50:38;7.50;;;3.13;;
4504;SDS011;2265;48.794;9.520;2023-06-04T01:53:06;6.03;;;2.80;;
4504;SDS011;2265;48.794;9.520;2023-06-04T01:55:33;4.23;;;2.80;;
4504;SDS011;2265;48.794;9.520;2023-06-04T01:58:00;4.73;;;2.70;;
4504;SDS011;2265;48.794;9.520;2023-06-04T02:00:28;4.07;;;2.60;;
4504;SDS011;2265;48.794;9.520;2023-06-04T02:02:56;4.63;;;2.70;;
4504;SDS011;2265;48.794;9.520;2023-06-04T02:05:23;5.27;;;2.70;;
4504;SDS011;2265;48.794;9.520;2023-06-04T02:07:50;4.80;;;2.73;;
4504;SDS011;2265;48.794;9.520;2023-06-04T02:10:18;4.10;;;2.40;;
4504;SDS011;2265;48.794;9.520;2023-06-04T02:12:55;4.37;;;2.60;;
4504;SDS011;2265;48.794;9.520;2023-06-04T02:15:24;3.43;;;2.37;;
4504;SDS011;2265;48.794;9.520;2023-06-04T02:17:56;7.87;;;3.00;;
4504;SDS011;2265;48.794;9.520;2023-06-04T02:20:24;5.13;;;2.93;;
4504;SDS011;2265;48.794;9.520;2023-06-04T02:22:53;6.90;;;2.97;;
4504;SDS011;2265;48.794;9.520;2023-06-04T02:25:20;3.50;;;2.30;;
4504;SDS011;2265;48.794;9.520;2023-06-04T02:27:48;6.07;;;3.17;;
4504;SDS011;2265;48.794;9.520;2023-06-04T02:30:15;5.87;;;3.37;;
4504;SDS011;2265;48.794;9.520;2023-06-04T02:32:42;5.53;;;3.00;;
4504;SDS011;2265;48.794;9.520;2023-06-04T02:35:11;5.53;;;3.40;;
4504;SDS011;2265;48.794;9.520;2023-06-04T02:37:39;6.23;;;3.17;;
4504;SDS011;2265;48.794;9.520;2023-06-04T02:40:06;7.10;;;3.20;;
4504;SDS011;2265;48.794;9.520;2023-06-04T02:42:34;5.10;;;3.17;;
4504;SDS011;2265;48.794;9.520;2023-06-04T02:45:01;5.60;;;3.20;;
4504;SDS011;2265;48.794;9.520;2023-06-04T02:47:29;7.13;;;3.30;;
4504;SDS011;2265;48.794;9.520;2023-06-04T02:49:56;5.93;;;3.00;;
4504;SDS011;2265;48.794;9.520;2023-06-04T02:52:24;4.13;;;2.70;;
4504;SDS011;2265;48.794;9.520;2023-06-04T02:54:51;4.63;;;2.63;;
4504;SDS011;2265;48.794;9.520;2023-06-04T02:57:18;4.00;;;2.50;;
4504;SDS011;2265;48.794;9.520;2023-06-04T02:59:46;5.70;;;2.97;;
4504;SDS011;2265;48.794;9.520;2023-06-04T03:02:13;3.93;;;2.57;;
4504;SDS011;2265;48.794;9.520;2023-06-04T03:04:40;4.33;;;2.67;;
4504;SDS011;2265;48.794;9.520;2023-06-04T03:07:09;6.13;;;2.90;;
4504;SDS011;2265;48.794;9.520;2023-06-04T03:09:38;5.00;;;2.90;;
4504;SDS011;2265;48.794;9.520;2023-06-04T03:12:06;5.87;;;2.80;;
4504;SDS011;2265;48.794;9.520;2023-06-04T03:14:33;5.47;;;2.90;;
4504;SDS011;2265;48.794;9.520;2023-06-04T03:17:00;4.20;;;2.30;;
4504;SDS011;2265;48.794;9.520;2023-06-04T03:19:33;3.63;;;2.60;;
4504;SDS011;2265;48.794;9.520;2023-06-04T03:22:01;5.40;;;2.33;;
4504;SDS011;2265;48.794;9.520;2023-06-04T03:24:30;4.23;;;2.40;;
4504;SDS011;2265;48.794;9.520;2023-06-04T03:27:02;3.37;;;2.13;;
4504;SDS011;2265;48.794;9.520;2023-06-04T03:29:30;5.73;;;2.77;;
4504;SDS011;2265;48.794;9.520;2023-06-04T03:31:58;5.80;;;2.40;;
4504;SDS011;2265;48.794;9.520;2023-06-04T03:34:27;7.57;;;2.53;;
4504;SDS011;2265;48.794;9.520;2023-06-04T03:36:56;3.13;;;2.23;;
4504;SDS011;2265;48.794;9.520;2023-06-04T03:39:24;8.70;;;3.10;;
4504;SDS011;2265;48.794;9.520;2023-06-04T03:41:52;5.13;;;3.10;;
4504;SDS011;2265;48.794;9.520;2023-06-04T03:44:21;7.40;;;2.90;;
4504;SDS011;2265;48.794;9.520;2023-06-04T03:46:48;5.50;;;3.17;;
4504;SDS011;2265;48.794;9.520;2023-06-04T03:49:16;4.10;;;2.90;;
4504;SDS011;2265;48.794;9.520;2023-06-04T03:51:43;6.30;;;3.07;;
4504;SDS011;2265;48.794;9.520;2023-06-04T03:54:10;4.50;;;2.80;;
4504;SDS011;2265;48.794;9.520;2023-06-04T03:56:42;5.50;;;2.90;;
4504;SDS011;2265;48.794;9.520;2023-06-04T03:59:09;5.30;;;2.70;;
4504;SDS011;2265;48.794;9.520;2023-06-04T04:01:38;6.17;;;3.27;;
4504;SDS011;2265;48.794;9.520;2023-06-04T04:04:05;4.30;;;2.80;;
4504;SDS011;2265;48.794;9.520;2023-06-04T04:06:32;4.50;;;2.80;;
4504;SDS011;2265;48.794;9.520;2023-06-04T04:09:00;6.47;;;2.97;;
4504;SDS011;2265;48.794;9.520;2023-06-04T04:11:28;5.07;;;2.90;;
4504;SDS011;2265;48.794;9.520;2023-06-04T04:14:03;5.50;;;3.13;;
4504;SDS011;2265;48.794;9.520;2023-06-04T04:16:30;6.57;;;3.00;;
4504;SDS011;2265;48.794;9.520;2023-06-04T04:18:58;3.90;;;2.80;;
4504;SDS011;2265;48.794;9.520;2023-06-04T04:21:25;4.50;;;2.90;;
4504;SDS011;2265;48.794;9.520;2023-06-04T04:23:52;5.30;;;3.30;;
4504;SDS011;2265;48.794;9.520;2023-06-04T04:26:19;4.77;;;3.00;;
4504;SDS011;2265;48.794;9.520;2023-06-04T04:28:47;5.40;;;3.03;;
4504;SDS011;2265;48.794;9.520;2023-06-04T04:31:14;6.80;;;3.43;;
4504;SDS011;2265;48.794;9.520;2023-06-04T04:33:42;5.50;;;3.10;;
4504;SDS011;2265;48.794;9.520;2023-06-04T04:36:12;5.70;;;2.93;;
4504;SDS011;2265;48.794;9.520;2023-06-04T04:38:39;5.57;;;3.20;;
4504;SDS011;2265;48.794;9.520;2023-06-04T04:41:06;4.87;;;3.17;;
4504;SDS011;2265;48.794;9.520;2023-06-04T04:43:34;5.97;;;3.00;;
4504;SDS011;2265;48.794;9.520;2023-06-04T04:46:02;4.80;;;3.20;;
4504;SDS011;2265;48.794;9.520;2023-06-04T04:48:29;5.27;;;3.10;;
4504;SDS011;2265;48.794;9.520;2023-06-04T04:50:57;4.00;;;2.60;;
4504;SDS011;2265;48.794;9.520;2023-06-04T04:53:25;6.30;;;2.83;;
4504;SDS011;2265;48.794;9.520;2023-06-04T04:55:53;6.67;;;2.83;;
4504;SDS011;2265;48.794;9.520;2023-06-04T04:58:20;5.57;;;2.87;;
4504;SDS011;2265;48.794;9.520;2023-06-04T05:00:48;4.87;;;2.97;;
4504;SDS011;2265;48.794;9.520;2023-06-04T05:03:15;7.10;;;2.80;;
4504;SDS011;2265;48.794;9.520;2023-06-04T05:05:42;4.87;;;2.80;;
4504;SDS011;2265;48.794;9.520;2023-06-04T05:08:10;5.10;;;2.97;;
4504;SDS011;2265;48.794;9.520;2023-06-04T05:10:39;6.20;;;3.23;;
4504;SDS011;2265;48.794;9.520;2023-06-04T05:13:06;4.30;;;2.73;;
4504;SDS011;2265;48.794;9.520;2023-06-04T05:15:41;4.03;;;2.40;;
4504;SDS011;2265;48.794;9.520;2023-06-04T05:18:08;4.33;;;2.60;;
4504;SDS011;2265;48.794;9.520;2023-06-04T05:20:35;5.13;;;2.97;;
4504;SDS011;2265;48.794;9.520;2023-06-04T05:23:04;4.80;;;2.60;;
4504;SDS011;2265;48.794;9.520;2023-06-04T05:25:31;6.30;;;2.80;;
4504;SDS011;2265;48.794;9.520;2023-06-04T05:28:00;4.63;;;2.97;;
4504;SDS011;2265;48.794;9.520;2023-06-04T05:30:27;4.73;;;2.43;;
4504;SDS011;2265;48.794;9.520;2023-06-04T05:32:54;5.10;;;2.67;;
4504;SDS011;2265;48.794;9.520;2023-06-04T05:35:21;3.47;;;2.17;;
4504;SDS011;2265;48.794;9.520;2023-06-04T05:37:48;3.20;;;2.20;;
4504;SDS011;2265;48.794;9.520;2023-06-04T05:40:19;2.33;;;1.87;;
4504;SDS011;2265;48.794;9.520;2023-06-04T05:42:47;9.20;;;2.40;;
4504;SDS011;2265;48.794;9.520;2023-06-04T05:45:16;3.73;;;2.20;;
4504;SDS011;2265;48.794;9.520;2023-06-04T05:47:43;3.97;;;2.40;;
4504;SDS011;2265;48.794;9.520;2023-06-04T05:50:10;3.43;;;1.73;;
4504;SDS011;2265;48.794;9.520;2023-06-04T05:52:38;7.27;;;2.33;;
4504;SDS011;2265;48.794;9.520;2023-06-04T05:55:06;3.93;;;2.10;;
4504;SDS011;2265;48.794;9.520;2023-06-04T05:57:34;3.03;;;2.13;;
4504;SDS011;2265;48.794;9.520;2023-06-04T06:00:01;4.40;;;2.30;;
4504;SDS011;2265;48.794;9.520;2023-06-04T06:02:30;4.67;;;2.00;;
4504;SDS011;2265;48.794;9.520;2023-06-04T06:04:58;2.70;;;1.73;;
4504;SDS011;2265;48.794;9.520;2023-06-04T06:07:25;2.87;;;2.00;;
4504;SDS011;2265;48.794;9.520;2023-06-04T06:09:52;3.30;;;2.07;;
4504;SDS011;2265;48.794;9.520;2023-06-04T06:12:19;4.50;;;2.30;;
4504;SDS011;2265;48.794;9.520;2023-06-04T06:14:46;3.30;;;2.10;;
4504;SDS011;2265;48.794;9.520;2023-06-04T06:17:13;2.50;;;2.00;;
4504;SDS011;2265;48.794;9.520;2023-06-04T06:19:43;2.90;;;2.07;;
4504;SDS011;2265;48.794;9.520;2023-06-04T06:22:10;6.97;;;2.50;;
4504;SDS011;2265;48.794;9.520;2023-06-04T06:24:39;3.87;;;1.80;;
4504;SDS011;2265;48.794;9.520;2023-06-04T06:27:06;3.50;;;2.17;;
4504;SDS011;2265;48.794;9.520;2023-06-04T06:29:36;3.53;;;2.03;;
4504;SDS011;2265;48.794;9.520;2023-06-04T06:32:04;7.47;;;1.93;;
4504;SDS011;2265;48.794;9.520;2023-06-04T06:34:32;3.17;;;2.10;;
4504;SDS011;2265;48.794;9.520;2023-06-04T06:37:00;2.50;;;1.90;;
4504;SDS011;2265;48.794;9.520;2023-06-04T06:39:27;4.30;;;2.50;;
4504;SDS011;2265;48.794;9.520;2023-06-04T06:41:55;4.17;;;2.77;;
4504;SDS011;2265;48.794;9.520;2023-06-04T06:44:23;6.40;;;2.30;;
4504;SDS011;2265;48.794;9.520;2023-06-04T06:46:50;2.30;;;1.90;;
4504;SDS011;2265;48.794;9.520;2023-06-04T06:49:17;2.90;;;2.00;;
4504;SDS011;2265;48.794;9.520;2023-06-04T06:51:44;2.73;;;1.87;;
4504;SDS011;2265;48.794;9.520;2023-06-04T06:54:14;2.17;;;1.80;;
4504;SDS011;2265;48.794;9.520;2023-06-04T06:56:43;4.00;;;2.47;;
4504;SDS011;2265;48.794;9.520;2023-06-04T06:59:10;3.40;;;2.13;;
4504;SDS011;2265;48.794;9.520;2023-06-04T07:01:37;3.87;;;2.50;;
4504;SDS011;2265;48.794;9.520;2023-06-04T07:04:04;3.00;;;2.43;;
4504;SDS011;2265;48.794;9.520;2023-06-04T07:06:33;5.20;;;2.93;;
4504;SDS011;2265;48.794;9.520;2023-06-04T07:09:01;4.67;;;2.47;;
4504;SDS011;2265;48.794;9.520;2023-06-04T07:11:30;3.83;;;2.20;;
4504;SDS011;2265;48.794;9.520;2023-06-04T07:14:01;4.30;;;2.50;;
4504;SDS011;2265;48.794;9.520;2023-06-04T07:16:28;3.27;;;2.13;;
4504;SDS011;2265;48.794;9.520;2023-06-04T07:18:56;3.80;;;2.20;;
4504;SDS011;2265;48.794;9.520;2023-06-04T07:21:23;3.50;;;2.50;;
4504;SDS011;2265;48.794;9.520;2023-06-04T07:23:50;3.80;;;2.40;;
4504;SDS011;2265;48.794;9.520;2023-06-04T07:26:17;4.30;;;2.40;;
4504;SDS011;2265;48.794;9.520;2023-06-04T07:28:46;4.37;;;2.90;;
4504;SDS011;2265;48.794;9.520;2023-06-04T07:31:14;3.63;;;2.40;;
4504;SDS011;2265;48.794;9.520;2023-06-04T07:33:42;4.33;;;2.37;;
4504;SDS011;2265;48.794;9.520;2023-06-04T07:36:11;2.93;;;2.10;;
4504;SDS011;2265;48.794;9.520;2023-06-04T07:38:39;3.97;;;2.60;;
4504;SDS011;2265;48.794;9.520;2023-06-04T07:41:06;5.90;;;2.33;;
4504;SDS011;2265;48.794;9.520;2023-06-04T07:43:33;6.93;;;2.50;;
4504;SDS011;2265;48.794;9.520;2023-06-04T07:46:02;7.83;;;2.90;;
4504;SDS011;2265;48.794;9.520;2023-06-04T07:48:29;6.20;;;2.90;;
4504;SDS011;2265;48.794;9.520;2023-06-04T07:50:56;3.43;;;2.40;;
4504;SDS011;2265;48.794;9.520;2023-06-04T07:53:24;4.27;;;2.33;;
4504;SDS011;2265;48.794;9.520;2023-06-04T07:55:51;3.20;;;2.40;;
4504;SDS011;2265;48.794;9.520;2023-06-04T07:58:28;6.00;;;2.70;;
4504;SDS011;2265;48.794;9.520;2023-06-04T08:00:55;5.30;;;2.70;;
4504;SDS011;2265;48.794;9.520;2023-06-04T08:03:24;4.57;;;2.57;;
4504;SDS011;2265;48.794;9.520;2023-06-04T08:05:51;4.40;;;2.70;;
4504;SDS011;2265;48.794;9.520;2023-06-04T08:08:18;3.43;;;2.13;;
4504;SDS011;2265;48.794;9.520;2023-06-04T08:10:47;5.60;;;2.60;;
4504;SDS011;2265;48.794;9.520;2023-06-04T08:13:15;4.33;;;2.50;;
4504;SDS011;2265;48.794;9.520;2023-06-04T08:15:42;3.87;;;2.60;;
4504;SDS011;2265;48.794;9.520;2023-06-04T08:18:09;2.70;;;2.20;;
4504;SDS011;2265;48.794;9.520;2023-06-04T08:20:39;4.10;;;2.80;;
4504;SDS011;2265;48.794;9.520;2023-06-04T08:23:06;4.90;;;2.40;;
4504;SDS011;2265;48.794;9.520;2023-06-04T08:25:33;4.30;;;2.50;;
4504;SDS011;2265;48.794;9.520;2023-06-04T08:28:00;4.87;;;2.77;;
4504;SDS011;2265;48.794;9.520;2023-06-04T08:30:28;4.10;;;2.63;;
4504;SDS011;2265;48.794;9.520;2023-06-04T08:32:55;4.23;;;2.80;;
4504;SDS011;2265;48.794;9.520;2023-06-04T08:35:22;4.73;;;3.10;;
4504;SDS011;2265;48.794;9.520;2023-06-04T08:37:54;4.90;;;2.77;;
4504;SDS011;2265;48.794;9.520;2023-06-04T08:40:22;4.50;;;2.70;;
4504;SDS011;2265;48.794;9.520;2023-06-04T08:42:50;6.20;;;2.70;;
4504;SDS011;2265;48.794;9.520;2023-06-04T08:45:23;6.73;;;2.80;;
4504;SDS011;2265;48.794;9.520;2023-06-04T08:47:50;5.53;;;2.80;;
4504;SDS011;2265;48.794;9.520;2023-06-04T08:50:18;3.67;;;2.17;;
4504;SDS011;2265;48.794;9.520;2023-06-04T08:52:47;4.60;;;2.90;;
4504;SDS011;2265;48.794;9.520;2023-06-04T08:55:19;6.03;;;2.93;;
4504;SDS011;2265;48.794;9.520;2023-06-04T08:57:47;5.57;;;2.80;;
4504;SDS011;2265;48.794;9.520;2023-06-04T09:00:17;6.83;;;2.90;;
4504;SDS011;2265;48.794;9.520;2023-06-04T09:02:44;5.40;;;3.00;;
4504;SDS011;2265;48.794;9.520;2023-06-04T09:05:16;7.67;;;3.47;;
4504;SDS011;2265;48.794;9.520;2023-06-04T09:07:46;5.90;;;3.10;;
4504;SDS011;2265;48.794;9.520;2023-06-04T09:10:15;4.00;;;2.57;;
4504;SDS011;2265;48.794;9.520;2023-06-04T09:12:46;3.37;;;2.53;;
4504;SDS011;2265;48.794;9.520;2023-06-04T09:15:15;3.33;;;2.53;;
4504;SDS011;2265;48.794;9.520;2023-06-04T09:17:42;6.17;;;3.17;;
4504;SDS011;2265;48.794;9.520;2023-06-04T09:20:18;4.63;;;2.70;;
4504;SDS011;2265;48.794;9.520;2023-06-04T09:22:45;5.03;;;3.23;;
4504;SDS011;2265;48.794;9.520;2023-06-04T09:25:19;4.40;;;2.87;;
4504;SDS011;2265;48.794;9.520;2023-06-04T09:27:48;5.40;;;3.10;;
4504;SDS011;2265;48.794;9.520;2023-06-04T09:30:15;4.33;;;2.83;;
4504;SDS011;2265;48.794;9.520;2023-06-04T09:32:42;5.77;;;3.10;;
4504;SDS011;2265;48.794;9.520;2023-06-04T09:35:10;4.70;;;3.27;;
4504;SDS011;2265;48.794;9.520;2023-06-04T09:37:39;4.10;;;2.90;;
4504;SDS011;2265;48.794;9.520;2023-06-04T09:40:06;10.80;;;3.40;;
4504;SDS011;2265;48.794;9.520;2023-06-04T09:42:43;5.43;;;3.13;;
4504;SDS011;2265;48.794;9.520;2023-06-04T09:45:13;4.33;;;2.90;;
4504;SDS011;2265;48.794;9.520;2023-06-04T09:47:52;4.50;;;2.80;;
4504;SDS011;2265;48.794;9.520;2023-06-04T09:50:24;4.93;;;3.23;;
4504;SDS011;2265;48.794;9.520;2023-06-04T09:55:19;5.80;;;3.57;;
4504;SDS011;2265;48.794;9.520;2023-06-04T10:00:24;4.50;;;2.90;;
4504;SDS011;2265;48.794;9.520;2023-06-04T10:02:55;4.67;;;3.10;;
4504;SDS011;2265;48.794;9.520;2023-06-04T10:05:30;4.00;;;3.13;;
4504;SDS011;2265;48.794;9.520;2023-06-04T10:07:59;6.90;;;3.30;;
4504;SDS011;2265;48.794;9.520;2023-06-04T10:10:29;4.20;;;2.90;;
4504;SDS011;2265;48.794;9.520;2023-06-04T10:13:00;6.10;;;3.03;;
4504;SDS011;2265;48.794;9.520;2023-06-04T10:15:33;5.80;;;3.47;;
4504;SDS011;2265;48.794;9.520;2023-06-04T10:18:05;6.03;;;3.30;;
4504;SDS011;2265;48.794;9.520;2023-06-04T10:20:33;5.20;;;3.43;;
4504;SDS011;2265;48.794;9.520;2023-06-04T10:23:00;4.40;;;2.80;;
4504;SDS011;2265;48.794;9.520;2023-06-04T10:25:29;5.70;;;3.23;;
4504;SDS011;2265;48.794;9.520;2023-06-04T10:27:57;9.50;;;3.23;;
4504;SDS011;2265;48.794;9.520;2023-06-04T10:30:24;4.67;;;3.37;;
4504;SDS011;2265;48.794;9.520;2023-06-04T10:32:53;5.90;;;3.43;;
4504;SDS011;2265;48.794;9.520;2023-06-04T10:35:32;6.80;;;3.73;;
4504;SDS011;2265;48.794;9.520;2023-06-04T10:38:05;5.50;;;3.30;;
4504;SDS011;2265;48.794;9.520;2023-06-04T10:40:33;5.00;;;3.20;;
4504;SDS011;2265;48.794;9.520;2023-06-04T10:43:04;4.90;;;3.30;;
4504;SDS011;2265;48.794;9.520;2023-06-04T10:45:32;5.60;;;3.53;;
4504;SDS011;2265;48.794;9.520;2023-06-04T10:48:01;6.47;;;3.27;;
4504;SDS011;2265;48.794;9.520;2023-06-04T10:50:28;6.57;;;3.30;;
4504;SDS011;2265;48.794;9.520;2023-06-04T10:52:55;5.20;;;3.57;;
4504;SDS011;2265;48.794;9.520;2023-06-04T10:55:24;7.23;;;3.70;;
4504;SDS011;2265;48.794;9.520;2023-06-04T10:57:52;5.10;;;3.53;;
4504;SDS011;2265;48.794;9.520;2023-06-04T11:00:22;4.57;;;3.10;;
4504;SDS011;2265;48.794;9.520;2023-06-04T11:03:01;5.27;;;3.33;;
4504;SDS011;2265;48.794;9.520;2023-06-04T11:05:34;4.33;;;3.07;;
4504;SDS011;2265;48.794;9.520;2023-06-04T11:08:03;7.10;;;3.40;;
4504;SDS011;2265;48.794;9.520;2023-06-04T11:10:31;7.00;;;3.60;;
4504;SDS011;2265;48.794;9.520;2023-06-04T11:13:01;5.57;;;3.27;;
4504;SDS011;2265;48.794;9.520;2023-06-04T11:15:37;5.93;;;3.33;;
4504;SDS011;2265;48.794;9.520;2023-06-04T11:18:06;7.23;;;3.80;;
4504;SDS011;2265;48.794;9.520;2023-06-04T11:20:33;6.23;;;3.53;;
4504;SDS011;2265;48.794;9.520;2023-06-04T11:23:02;6.67;;;3.67;;
4504;SDS011;2265;48.794;9.520;2023-06-04T11:25:31;4.73;;;3.17;;
4504;SDS011;2265;48.794;9.520;2023-06-04T11:27:59;4.13;;;3.13;;
4504;SDS011;2265;48.794;9.520;2023-06-04T11:30:27;5.97;;;3.43;;
4504;SDS011;2265;48.794;9.520;2023-06-04T11:33:01;4.90;;;3.30;;
4504;SDS011;2265;48.794;9.520;2023-06-04T11:35:31;4.43;;;3.43;;
4504;SDS011;2265;48.794;9.520;2023-06-04T11:38:06;5.20;;;3.30;;
4504;SDS011;2265;48.794;9.520;2023-06-04T11:40:34;6.40;;;3.37;;
4504;SDS011;2265;48.794;9.520;2023-06-04T11:43:01;4.37;;;3.43;;
4504;SDS011;2265;48.794;9.520;2023-06-04T11:45:29;4.70;;;3.27;;
4504;SDS011;2265;48.794;9.520;2023-06-04T11:47:56;7.03;;;3.40;;
4504;SDS011;2265;48.794;9.520;2023-06-04T11:50:25;4.83;;;3.30;;
4504;SDS011;2265;48.794;9.520;2023-06-04T11:52:55;5.40;;;3.77;;
4504;SDS011;2265;48.794;9.520;2023-06-04T11:55:22;5.30;;;3.57;;
4504;SDS011;2265;48.794;9.520;2023-06-04T11:57:49;5.03;;;3.43;;
4504;SDS011;2265;48.794;9.520;2023-06-04T12:00:17;9.43;;;3.77;;
4504;SDS011;2265;48.794;9.520;2023-06-04T12:02:49;5.70;;;3.43;;
4504;SDS011;2265;48.794;9.520;2023-06-04T12:05:17;6.77;;;3.80;;
4504;SDS011;2265;48.794;9.520;2023-06-04T12:07:45;5.60;;;3.60;;
4504;SDS011;2265;48.794;9.520;2023-06-04T12:10:17;6.17;;;3.37;;
4504;SDS011;2265;48.794;9.520;2023-06-04T12:12:44;5.83;;;3.37;;
4504;SDS011;2265;48.794;9.520;2023-06-04T12:15:11;4.20;;;2.87;;
4504;SDS011;2265;48.794;9.520;2023-06-04T12:17:50;4.60;;;3.30;;
4504;SDS011;2265;48.794;9.520;2023-06-04T12:20:27;7.37;;;3.80;;
4504;SDS011;2265;48.794;9.520;2023-06-04T12:22:58;4.33;;;3.40;;
4504;SDS011;2265;48.794;9.520;2023-06-04T12:25:28;4.77;;;3.40;;
4504;SDS011;2265;48.794;9.520;2023-06-04T12:27:56;4.87;;;3.17;;
4504;SDS011;2265;48.794;9.520;2023-06-04T12:30:34;7.10;;;3.43;;
4504;SDS011;2265;48.794;9.520;2023-06-04T12:33:02;5.30;;;3.17;;
4504;SDS011;2265;48.794;9.520;2023-06-04T12:35:29;4.10;;;3.10;;
4504;SDS011;2265;48.794;9.520;2023-06-04T12:37:56;5.30;;;3.47;;
4504;SDS011;2265;48.794;9.520;2023-06-04T12:40:23;5.87;;;3.43;;
4504;SDS011;2265;48.794;9.520;2023-06-04T12:42:52;5.70;;;3.00;;
4504;SDS011;2265;48.794;9.520;2023-06-04T12:45:19;5.03;;;3.43;;
4504;SDS011;2265;48.794;9.520;2023-06-04T12:47:49;5.90;;;3.17;;
4504;SDS011;2265;48.794;9.520;2023-06-04T12:50:16;4.13;;;3.20;;
4504;SDS011;2265;48.794;9.520;2023-06-04T12:52:44;5.00;;;3.17;;
4504;SDS011;2265;48.794;9.520;2023-06-04T12:55:11;6.83;;;3.43;;
4504;SDS011;2265;48.794;9.520;2023-06-04T12:57:38;4.90;;;3.33;;
4504;SDS011;2265;48.794;9.520;2023-06-04T13:00:07;5.30;;;3.40;;
4504;SDS011;2265;48.794;9.520;2023-06-04T13:02:35;4.00;;;2.97;;
4504;SDS011;2265;48.794;9.520;2023-06-04T13:05:03;5.60;;;3.50;;
4504;SDS011;2265;48.794;9.520;2023-06-04T13:07:31;6.00;;;3.90;;
4504;SDS011;2265;48.794;9.520;2023-06-04T13:09:58;5.60;;;3.30;;
4504;SDS011;2265;48.794;9.520;2023-06-04T13:12:25;5.67;;;3.40;;
4504;SDS011;2265;48.794;9.520;2023-06-04T13:14:52;4.77;;;3.57;;
4504;SDS011;2265;48.794;9.520;2023-06-04T13:17:21;4.43;;;3.30;;
4504;SDS011;2265;48.794;9.520;2023-06-04T13:19:48;4.70;;;3.30;;
4504;SDS011;2265;48.794;9.520;2023-06-04T13:22:17;4.17;;;3.10;;
4504;SDS011;2265;48.794;9.520;2023-06-04T13:24:44;4.97;;;3.40;;
4504;SDS011;2265;48.794;9.520;2023-06-04T13:27:11;5.20;;;3.40;;
4504;SDS011;2265;48.794;9.520;2023-06-04T13:29:38;3.73;;;2.90;;
4504;SDS011;2265;48.794;9.520;2023-06-04T13:32:05;4.50;;;2.83;;
4504;SDS011;2265;48.794;9.520;2023-06-04T13:34:34;5.80;;;3.33;;
4504;SDS011;2265;48.794;9.520;2023-06-04T13:37:01;4.83;;;3.47;;
4504;SDS011;2265;48.794;9.520;2023-06-04T13:39:28;5.27;;;3.47;;
4504;SDS011;2265;48.794;9.520;2023-06-04T13:41:55;5.72;;;3.35;;
4504;SDS011;2265;48.794;9.520;2023-06-04T13:44:22;5.67;;;3.50;;
4504;SDS011;2265;48.794;9.520;2023-06-04T13:46:51;5.63;;;3.10;;
4504;SDS011;2265;48.794;9.520;2023-06-04T13:49:18;5.30;;;3.57;;
4504;SDS011;2265;48.794;9.520;2023-06-04T13:51:47;5.70;;;3.80;;
4504;SDS011;2265;48.794;9.520;2023-06-04T13:54:14;6.07;;;3.47;;
4504;SDS011;2265;48.794;9.520;2023-06-04T13:56:41;4.83;;;3.40;;
4504;SDS011;2265;48.794;9.520;2023-06-04T13:59:10;4.70;;;3.20;;
4504;SDS011;2265;48.794;9.520;2023-06-04T14:01:37;5.83;;;3.73;;
4504;SDS011;2265;48.794;9.520;2023-06-04T14:04:05;6.10;;;3.27;;
4504;SDS011;2265;48.794;9.520;2023-06-04T14:06:34;4.83;;;3.33;;
4504;SDS011;2265;48.794;9.520;2023-06-04T14:09:11;6.13;;;3.63;;
4504;SDS011;2265;48.794;9.520;2023-06-04T14:11:39;3.70;;;2.83;;
4504;SDS011;2265;48.794;9.520;2023-06-04T14:14:06;5.67;;;3.77;;
4504;SDS011;2265;48.794;9.520;2023-06-04T14:16:33;4.00;;;3.07;;
4504;SDS011;2265;48.794;9.520;2023-06-04T14:19:00;4.43;;;3.13;;
4504;SDS011;2265;48.794;9.520;2023-06-04T14:21:27;5.13;;;3.23;;
4504;SDS011;2265;48.794;9.520;2023-06-04T14:23:54;5.13;;;3.10;;
4504;SDS011;2265;48.794;9.520;2023-06-04T14:26:23;4.90;;;3.40;;
4504;SDS011;2265;48.794;9.520;2023-06-04T14:28:51;5.70;;;3.60;;
4504;SDS011;2265;48.794;9.520;2023-06-04T14:31:19;4.07;;;3.10;;
4504;SDS011;2265;48.794;9.520;2023-06-04T14:33:46;4.83;;;3.30;;
4504;SDS011;2265;48.794;9.520;2023-06-04T14:36:13;5.20;;;3.17;;
4504;SDS011;2265;48.794;9.520;2023-06-04T14:38:41;5.30;;;3.37;;
4504;SDS011;2265;48.794;9.520;2023-06-04T14:41:08;5.23;;;3.30;;
4504;SDS011;2265;48.794;9.520;2023-06-04T14:43:37;5.10;;;3.30;;
4504;SDS011;2265;48.794;9.520;2023-06-04T14:46:04;4.17;;;3.17;;
4504;SDS011;2265;48.794;9.520;2023-06-04T14:48:31;5.27;;;3.50;;
4504;SDS011;2265;48.794;9.520;2023-06-04T14:50:58;5.47;;;3.80;;
4504;SDS011;2265;48.794;9.520;2023-06-04T14:53:25;4.30;;;3.10;;
4504;SDS011;2265;48.794;9.520;2023-06-04T14:55:52;7.03;;;3.37;;
4504;SDS011;2265;48.794;9.520;2023-06-04T14:58:19;4.00;;;2.90;;
4504;SDS011;2265;48.794;9.520;2023-06-04T15:00:48;5.03;;;3.40;;
4504;SDS011;2265;48.794;9.520;2023-06-04T15:03:15;5.57;;;3.47;;
4504;SDS011;2265;48.794;9.520;2023-06-04T15:05:42;4.90;;;3.00;;
4504;SDS011;2265;48.794;9.520;2023-06-04T15:08:11;3.90;;;2.97;;
4504;SDS011;2265;48.794;9.520;2023-06-04T15:10:38;4.80;;;3.23;;
4504;SDS011;2265;48.794;9.520;2023-06-04T15:13:05;6.97;;;3.60;;
4504;SDS011;2265;48.794;9.520;2023-06-04T15:15:32;5.47;;;3.20;;
4504;SDS011;2265;48.794;9.520;2023-06-04T15:18:01;5.70;;;3.63;;
4504;SDS011;2265;48.794;9.520;2023-06-04T15:20:28;4.83;;;2.90;;
4504;SDS011;2265;48.794;9.520;2023-06-04T15:22:55;5.10;;;3.40;;
4504;SDS011;2265;48.794;9.520;2023-06-04T15:25:22;3.87;;;2.97;;
4504;SDS011;2265;48.794;9.520;2023-06-04T15:27:49;6.63;;;3.50;;
4504;SDS011;2265;48.794;9.520;2023-06-04T15:30:16;5.13;;;3.27;;